プラハ の空港の天気 - METARとTAF

ルズィニエ国際空港(プラハ) ( LKPR / PRG ) - チェコ プラハ
飛行場実況気象(Metar)
観測時間06/03 07:00 CEST (06/03 05:00 UTC)
風向・風速西南西 5m/s
視程10km以上
天気現象
なし
気温13℃
湿度82%
気圧1008hPa
METARLKPR 030500Z 24010KT CAVOK 13/10 Q1008 NOSIG
過去の天気等 Google飛行場航空写真 Wunderground天気予報

過去48時間のMETAR

飛行場予報(TAF)
発表時間: 6/03 01:00 CEST (6/02 23:00 UTC)
予報対象時間: 3日2時 CEST ~ 4日8時 CEST
風向・風速西 4m/s
視程10km以上
なし
3日11時 CEST ~ 4日2時 CEST に一時的に
視程7000m
天気現象しゅう雨
全天の4割程度の雲 雲底高度 1220m
3日12時 CEST ~ 3日22時 CEST に 確率 30% で一時的に
風向・風速北 8m/s 瞬間風速 15m/s
視程4000m
天気現象雷雨
全天の4割程度の積乱雲 雲底高度 910m
3日22時 CEST ~ 3日24時 CEST に徐々に
風向・風速南南東 3m/s
TAF LKPR 022300Z 0300/0406 26008KT CAVOK
TEMPO 0309/0400 7000 SHRA SCT040
PROB30 TEMPO 0310/0320 36016G30KT 4000 TSRA SCT030CB
BECMG 0320/0322 15006KT